sensor_id;sensor_type;location;lat;lon;timestamp;temperature;humidity
55771;DHT22;41687;-33.234;-60.334;2023-05-10T00:00:28;16.10;80.60
55771;DHT22;41687;-33.234;-60.334;2023-05-10T00:02:56;16.10;81.20
55771;DHT22;41687;-33.234;-60.334;2023-05-10T00:05:25;16.00;79.40
55771;DHT22;41687;-33.234;-60.334;2023-05-10T00:07:53;16.10;79.00
55771;DHT22;41687;-33.234;-60.334;2023-05-10T00:10:21;16.00;79.50
55771;DHT22;41687;-33.234;-60.334;2023-05-10T00:12:49;16.00;79.60
55771;DHT22;41687;-33.234;-60.334;2023-05-10T00:15:18;15.90;79.80
55771;DHT22;41687;-33.234;-60.334;2023-05-10T00:17:48;15.90;80.20
55771;DHT22;41687;-33.234;-60.334;2023-05-10T00:20:15;15.90;80.20
55771;DHT22;41687;-33.234;-60.334;2023-05-10T00:22:43;15.90;80.80
55771;DHT22;41687;-33.234;-60.334;2023-05-10T00:25:13;16.00;81.30
55771;DHT22;41687;-33.234;-60.334;2023-05-10T00:27:41;15.90;81.20
55771;DHT22;41687;-33.234;-60.334;2023-05-10T00:30:08;15.90;80.70
55771;DHT22;41687;-33.234;-60.334;2023-05-10T00:32:36;15.90;80.50
55771;DHT22;41687;-33.234;-60.334;2023-05-10T00:35:04;15.90;80.50
55771;DHT22;41687;-33.234;-60.334;2023-05-10T00:37:32;15.80;80.00
55771;DHT22;41687;-33.234;-60.334;2023-05-10T00:40:00;15.70;80.60
55771;DHT22;41687;-33.234;-60.334;2023-05-10T00:42:28;15.70;81.30
55771;DHT22;41687;-33.234;-60.334;2023-05-10T00:44:56;15.70;82.20
55771;DHT22;41687;-33.234;-60.334;2023-05-10T00:47:24;15.60;82.70
55771;DHT22;41687;-33.234;-60.334;2023-05-10T00:49:53;15.60;83.30
55771;DHT22;41687;-33.234;-60.334;2023-05-10T00:52:23;15.50;83.60
55771;DHT22;41687;-33.234;-60.334;2023-05-10T00:54:53;15.50;83.50
55771;DHT22;41687;-33.234;-60.334;2023-05-10T00:57:21;15.40;82.40
55771;DHT22;41687;-33.234;-60.334;2023-05-10T00:59:49;15.30;82.00
55771;DHT22;41687;-33.234;-60.334;2023-05-10T01:02:18;15.20;82.30
55771;DHT22;41687;-33.234;-60.334;2023-05-10T01:04:46;15.10;83.30
55771;DHT22;41687;-33.234;-60.334;2023-05-10T01:07:14;15.00;84.30
55771;DHT22;41687;-33.234;-60.334;2023-05-10T01:09:43;15.00;84.50
55771;DHT22;41687;-33.234;-60.334;2023-05-10T01:12:12;15.00;84.90
55771;DHT22;41687;-33.234;-60.334;2023-05-10T01:14:39;15.00;85.00
55771;DHT22;41687;-33.234;-60.334;2023-05-10T01:17:08;15.00;85.70
55771;DHT22;41687;-33.234;-60.334;2023-05-10T01:19:37;15.00;85.90
55771;DHT22;41687;-33.234;-60.334;2023-05-10T01:25:17;14.90;87.10
55771;DHT22;41687;-33.234;-60.334;2023-05-10T01:39:05;14.70;88.80
55771;DHT22;41687;-33.234;-60.334;2023-05-10T01:41:51;14.60;89.00
55771;DHT22;41687;-33.234;-60.334;2023-05-10T01:47:14;14.60;89.80
55771;DHT22;41687;-33.234;-60.334;2023-05-10T01:49:53;14.70;89.20
55771;DHT22;41687;-33.234;-60.334;2023-05-10T01:52:42;14.70;89.10
55771;DHT22;41687;-33.234;-60.334;2023-05-10T01:55:15;14.70;89.00
55771;DHT22;41687;-33.234;-60.334;2023-05-10T01:57:45;14.70;88.70
55771;DHT22;41687;-33.234;-60.334;2023-05-10T02:00:14;14.70;88.80
55771;DHT22;41687;-33.234;-60.334;2023-05-10T02:02:44;14.60;89.10
55771;DHT22;41687;-33.234;-60.334;2023-05-10T02:05:13;14.60;89.10
55771;DHT22;41687;-33.234;-60.334;2023-05-10T02:07:42;14.60;89.30
55771;DHT22;41687;-33.234;-60.334;2023-05-10T02:10:11;14.50;89.40
55771;DHT22;41687;-33.234;-60.334;2023-05-10T02:12:42;14.50;89.70
55771;DHT22;41687;-33.234;-60.334;2023-05-10T02:15:12;14.50;89.20
55771;DHT22;41687;-33.234;-60.334;2023-05-10T02:17:44;14.50;89.40
55771;DHT22;41687;-33.234;-60.334;2023-05-10T02:20:14;14.40;89.70
55771;DHT22;41687;-33.234;-60.334;2023-05-10T02:22:43;14.40;89.80
55771;DHT22;41687;-33.234;-60.334;2023-05-10T02:25:14;14.50;89.70
55771;DHT22;41687;-33.234;-60.334;2023-05-10T02:27:44;14.40;89.70
55771;DHT22;41687;-33.234;-60.334;2023-05-10T02:30:12;14.40;90.00
55771;DHT22;41687;-33.234;-60.334;2023-05-10T02:32:40;14.50;90.00
55771;DHT22;41687;-33.234;-60.334;2023-05-10T02:35:10;14.50;89.90
55771;DHT22;41687;-33.234;-60.334;2023-05-10T02:37:39;14.50;90.00
55771;DHT22;41687;-33.234;-60.334;2023-05-10T02:40:07;14.50;89.90
55771;DHT22;41687;-33.234;-60.334;2023-05-10T02:42:37;14.50;90.00
55771;DHT22;41687;-33.234;-60.334;2023-05-10T02:45:12;14.50;89.90
55771;DHT22;41687;-33.234;-60.334;2023-05-10T02:47:42;14.50;90.00
55771;DHT22;41687;-33.234;-60.334;2023-05-10T02:50:10;14.50;90.00
55771;DHT22;41687;-33.234;-60.334;2023-05-10T02:52:47;14.50;89.80
55771;DHT22;41687;-33.234;-60.334;2023-05-10T02:55:21;14.50;90.10
55771;DHT22;41687;-33.234;-60.334;2023-05-10T02:57:55;14.50;90.10
55771;DHT22;41687;-33.234;-60.334;2023-05-10T03:00:25;14.50;90.00
55771;DHT22;41687;-33.234;-60.334;2023-05-10T03:02:53;14.50;90.00
55771;DHT22;41687;-33.234;-60.334;2023-05-10T03:05:21;14.50;90.00
55771;DHT22;41687;-33.234;-60.334;2023-05-10T03:07:49;14.50;89.90
55771;DHT22;41687;-33.234;-60.334;2023-05-10T03:10:17;14.40;89.80
55771;DHT22;41687;-33.234;-60.334;2023-05-10T03:16:05;14.50;90.00
55771;DHT22;41687;-33.234;-60.334;2023-05-10T03:18:48;14.50;90.10
55771;DHT22;41687;-33.234;-60.334;2023-05-10T03:21:19;14.50;89.50
55771;DHT22;41687;-33.234;-60.334;2023-05-10T03:26:27;14.50;89.60
55771;DHT22;41687;-33.234;-60.334;2023-05-10T03:29:05;14.50;89.80
55771;DHT22;41687;-33.234;-60.334;2023-05-10T03:31:34;14.50;89.80
55771;DHT22;41687;-33.234;-60.334;2023-05-10T03:34:01;14.40;89.90
55771;DHT22;41687;-33.234;-60.334;2023-05-10T03:36:29;14.50;89.90
55771;DHT22;41687;-33.234;-60.334;2023-05-10T03:38:57;14.50;89.90
55771;DHT22;41687;-33.234;-60.334;2023-05-10T03:41:25;14.50;89.80
55771;DHT22;41687;-33.234;-60.334;2023-05-10T03:43:53;14.50;90.10
55771;DHT22;41687;-33.234;-60.334;2023-05-10T03:46:21;14.60;90.50
55771;DHT22;41687;-33.234;-60.334;2023-05-10T03:48:49;14.60;90.60
55771;DHT22;41687;-33.234;-60.334;2023-05-10T03:51:16;14.60;90.80
55771;DHT22;41687;-33.234;-60.334;2023-05-10T03:53:44;14.60;90.80
55771;DHT22;41687;-33.234;-60.334;2023-05-10T03:56:12;14.60;91.00
55771;DHT22;41687;-33.234;-60.334;2023-05-10T03:58:39;14.50;90.80
55771;DHT22;41687;-33.234;-60.334;2023-05-10T04:01:07;14.50;90.80
55771;DHT22;41687;-33.234;-60.334;2023-05-10T04:03:34;14.60;91.10
55771;DHT22;41687;-33.234;-60.334;2023-05-10T04:06:05;14.60;90.90
55771;DHT22;41687;-33.234;-60.334;2023-05-10T04:08:35;14.60;90.80
55771;DHT22;41687;-33.234;-60.334;2023-05-10T04:11:06;14.60;90.70
55771;DHT22;41687;-33.234;-60.334;2023-05-10T04:13:35;14.70;91.00
55771;DHT22;41687;-33.234;-60.334;2023-05-10T04:16:02;14.70;91.10
55771;DHT22;41687;-33.234;-60.334;2023-05-10T04:18:31;14.70;91.10
55771;DHT22;41687;-33.234;-60.334;2023-05-10T04:20:58;14.70;91.10
55771;DHT22;41687;-33.234;-60.334;2023-05-10T04:23:27;14.70;90.40
55771;DHT22;41687;-33.234;-60.334;2023-05-10T04:26:03;14.70;90.30
55771;DHT22;41687;-33.234;-60.334;2023-05-10T04:28:31;14.60;90.60
55771;DHT22;41687;-33.234;-60.334;2023-05-10T04:31:07;14.70;90.40
55771;DHT22;41687;-33.234;-60.334;2023-05-10T04:33:36;14.70;90.50
55771;DHT22;41687;-33.234;-60.334;2023-05-10T04:36:04;14.70;90.50
55771;DHT22;41687;-33.234;-60.334;2023-05-10T04:38:31;14.70;90.80
55771;DHT22;41687;-33.234;-60.334;2023-05-10T04:41:09;14.80;91.10
55771;DHT22;41687;-33.234;-60.334;2023-05-10T04:43:37;14.70;90.80
55771;DHT22;41687;-33.234;-60.334;2023-05-10T04:46:05;14.70;90.80
55771;DHT22;41687;-33.234;-60.334;2023-05-10T04:48:34;14.70;90.80
55771;DHT22;41687;-33.234;-60.334;2023-05-10T04:51:01;14.60;91.20
55771;DHT22;41687;-33.234;-60.334;2023-05-10T04:53:31;14.60;91.50
55771;DHT22;41687;-33.234;-60.334;2023-05-10T04:55:58;14.60;91.60
55771;DHT22;41687;-33.234;-60.334;2023-05-10T04:58:25;14.50;91.70
55771;DHT22;41687;-33.234;-60.334;2023-05-10T05:00:53;14.50;91.70
55771;DHT22;41687;-33.234;-60.334;2023-05-10T05:03:21;14.50;91.80
55771;DHT22;41687;-33.234;-60.334;2023-05-10T05:05:48;14.50;92.10
55771;DHT22;41687;-33.234;-60.334;2023-05-10T05:08:16;14.50;91.90
55771;DHT22;41687;-33.234;-60.334;2023-05-10T05:10:43;14.40;91.80
55771;DHT22;41687;-33.234;-60.334;2023-05-10T05:13:12;14.40;91.80
55771;DHT22;41687;-33.234;-60.334;2023-05-10T05:15:40;14.30;91.70
55771;DHT22;41687;-33.234;-60.334;2023-05-10T05:18:08;14.30;91.70
55771;DHT22;41687;-33.234;-60.334;2023-05-10T05:20:35;14.20;92.20
55771;DHT22;41687;-33.234;-60.334;2023-05-10T05:23:03;14.20;92.40
55771;DHT22;41687;-33.234;-60.334;2023-05-10T05:25:30;14.20;92.10
55771;DHT22;41687;-33.234;-60.334;2023-05-10T05:27:58;14.20;92.00
55771;DHT22;41687;-33.234;-60.334;2023-05-10T05:30:26;14.10;91.90
55771;DHT22;41687;-33.234;-60.334;2023-05-10T05:32:54;14.10;91.80
55771;DHT22;41687;-33.234;-60.334;2023-05-10T05:35:21;14.10;92.10
55771;DHT22;41687;-33.234;-60.334;2023-05-10T05:37:49;14.10;92.00
55771;DHT22;41687;-33.234;-60.334;2023-05-10T05:40:16;14.10;92.10
55771;DHT22;41687;-33.234;-60.334;2023-05-10T05:42:44;14.10;92.10
55771;DHT22;41687;-33.234;-60.334;2023-05-10T05:45:12;14.10;92.30
55771;DHT22;41687;-33.234;-60.334;2023-05-10T05:47:42;14.00;92.40
55771;DHT22;41687;-33.234;-60.334;2023-05-10T05:50:10;14.00;92.50
55771;DHT22;41687;-33.234;-60.334;2023-05-10T05:52:38;14.00;92.70
55771;DHT22;41687;-33.234;-60.334;2023-05-10T05:55:05;13.90;92.80
55771;DHT22;41687;-33.234;-60.334;2023-05-10T05:57:33;13.80;92.70
55771;DHT22;41687;-33.234;-60.334;2023-05-10T06:00:00;13.80;92.60
55771;DHT22;41687;-33.234;-60.334;2023-05-10T06:02:39;13.70;92.30
55771;DHT22;41687;-33.234;-60.334;2023-05-10T06:05:06;13.60;92.40
55771;DHT22;41687;-33.234;-60.334;2023-05-10T06:07:34;13.50;92.40
55771;DHT22;41687;-33.234;-60.334;2023-05-10T06:10:02;13.40;92.30
55771;DHT22;41687;-33.234;-60.334;2023-05-10T06:12:29;13.30;92.40
55771;DHT22;41687;-33.234;-60.334;2023-05-10T06:14:57;13.20;92.20
55771;DHT22;41687;-33.234;-60.334;2023-05-10T06:17:25;13.10;92.20
55771;DHT22;41687;-33.234;-60.334;2023-05-10T06:19:53;13.10;92.30
55771;DHT22;41687;-33.234;-60.334;2023-05-10T06:22:21;13.10;92.30
55771;DHT22;41687;-33.234;-60.334;2023-05-10T06:24:52;13.00;92.30
55771;DHT22;41687;-33.234;-60.334;2023-05-10T06:27:20;13.00;92.30
55771;DHT22;41687;-33.234;-60.334;2023-05-10T06:29:47;13.00;92.40
55771;DHT22;41687;-33.234;-60.334;2023-05-10T06:32:14;13.00;92.40
55771;DHT22;41687;-33.234;-60.334;2023-05-10T06:34:42;12.90;92.40
55771;DHT22;41687;-33.234;-60.334;2023-05-10T06:37:11;12.90;92.60
55771;DHT22;41687;-33.234;-60.334;2023-05-10T06:39:38;12.90;92.70
55771;DHT22;41687;-33.234;-60.334;2023-05-10T06:42:06;12.90;92.70
55771;DHT22;41687;-33.234;-60.334;2023-05-10T06:44:34;12.80;92.70
55771;DHT22;41687;-33.234;-60.334;2023-05-10T06:47:01;12.70;92.90
55771;DHT22;41687;-33.234;-60.334;2023-05-10T06:49:29;12.70;93.00
55771;DHT22;41687;-33.234;-60.334;2023-05-10T06:51:56;12.60;93.10
55771;DHT22;41687;-33.234;-60.334;2023-05-10T06:54:24;12.50;92.90
55771;DHT22;41687;-33.234;-60.334;2023-05-10T06:56:51;12.50;93.10
55771;DHT22;41687;-33.234;-60.334;2023-05-10T06:59:20;12.50;93.10
55771;DHT22;41687;-33.234;-60.334;2023-05-10T07:01:48;12.50;93.10
55771;DHT22;41687;-33.234;-60.334;2023-05-10T07:04:15;12.50;93.00
55771;DHT22;41687;-33.234;-60.334;2023-05-10T07:06:44;12.50;93.00
55771;DHT22;41687;-33.234;-60.334;2023-05-10T07:09:13;12.50;93.00
55771;DHT22;41687;-33.234;-60.334;2023-05-10T07:11:40;12.60;93.00
55771;DHT22;41687;-33.234;-60.334;2023-05-10T07:14:08;12.60;93.00
55771;DHT22;41687;-33.234;-60.334;2023-05-10T07:16:35;12.60;92.90
55771;DHT22;41687;-33.234;-60.334;2023-05-10T07:19:03;12.60;92.80
55771;DHT22;41687;-33.234;-60.334;2023-05-10T07:21:32;12.70;92.50
55771;DHT22;41687;-33.234;-60.334;2023-05-10T07:24:00;12.70;92.50
55771;DHT22;41687;-33.234;-60.334;2023-05-10T07:26:27;12.70;92.40
55771;DHT22;41687;-33.234;-60.334;2023-05-10T07:28:55;12.60;92.50
55771;DHT22;41687;-33.234;-60.334;2023-05-10T07:31:23;12.60;92.50
55771;DHT22;41687;-33.234;-60.334;2023-05-10T07:33:51;12.60;92.50
55771;DHT22;41687;-33.234;-60.334;2023-05-10T07:36:18;12.50;92.30
55771;DHT22;41687;-33.234;-60.334;2023-05-10T07:38:45;12.50;92.50
55771;DHT22;41687;-33.234;-60.334;2023-05-10T07:41:13;12.50;92.50
55771;DHT22;41687;-33.234;-60.334;2023-05-10T07:43:41;12.40;92.50
55771;DHT22;41687;-33.234;-60.334;2023-05-10T07:46:08;12.50;92.50
55771;DHT22;41687;-33.234;-60.334;2023-05-10T07:48:37;12.50;92.40
55771;DHT22;41687;-33.234;-60.334;2023-05-10T07:51:04;12.50;92.40
55771;DHT22;41687;-33.234;-60.334;2023-05-10T07:53:34;12.50;92.50
55771;DHT22;41687;-33.234;-60.334;2023-05-10T07:58:46;12.50;92.60
55771;DHT22;41687;-33.234;-60.334;2023-05-10T08:01:14;12.40;92.60
55771;DHT22;41687;-33.234;-60.334;2023-05-10T08:03:41;12.40;92.40
55771;DHT22;41687;-33.234;-60.334;2023-05-10T08:06:09;12.40;92.30
55771;DHT22;41687;-33.234;-60.334;2023-05-10T08:08:37;12.40;92.40
55771;DHT22;41687;-33.234;-60.334;2023-05-10T08:11:04;12.40;92.30
55771;DHT22;41687;-33.234;-60.334;2023-05-10T08:13:32;12.40;92.40
55771;DHT22;41687;-33.234;-60.334;2023-05-10T08:16:00;12.50;92.20
55771;DHT22;41687;-33.234;-60.334;2023-05-10T08:18:28;12.40;92.10
55771;DHT22;41687;-33.234;-60.334;2023-05-10T08:20:55;12.40;92.10
55771;DHT22;41687;-33.234;-60.334;2023-05-10T08:23:23;12.40;92.10
55771;DHT22;41687;-33.234;-60.334;2023-05-10T08:25:50;12.40;92.10
55771;DHT22;41687;-33.234;-60.334;2023-05-10T08:28:18;12.30;92.00
55771;DHT22;41687;-33.234;-60.334;2023-05-10T08:30:45;12.30;92.10
55771;DHT22;41687;-33.234;-60.334;2023-05-10T08:33:13;12.30;92.00
55771;DHT22;41687;-33.234;-60.334;2023-05-10T08:35:40;12.30;91.90
55771;DHT22;41687;-33.234;-60.334;2023-05-10T08:38:08;12.40;92.00
55771;DHT22;41687;-33.234;-60.334;2023-05-10T08:40:37;12.40;92.00
55771;DHT22;41687;-33.234;-60.334;2023-05-10T08:43:07;12.40;92.00
55771;DHT22;41687;-33.234;-60.334;2023-05-10T08:45:40;12.40;92.10
55771;DHT22;41687;-33.234;-60.334;2023-05-10T08:48:09;12.40;92.20
55771;DHT22;41687;-33.234;-60.334;2023-05-10T08:50:39;12.40;92.40
55771;DHT22;41687;-33.234;-60.334;2023-05-10T08:53:10;12.50;92.30
55771;DHT22;41687;-33.234;-60.334;2023-05-10T08:55:39;12.40;92.00
55771;DHT22;41687;-33.234;-60.334;2023-05-10T08:58:09;12.40;92.20
55771;DHT22;41687;-33.234;-60.334;2023-05-10T09:00:37;12.40;92.10
55771;DHT22;41687;-33.234;-60.334;2023-05-10T09:03:05;12.40;92.10
55771;DHT22;41687;-33.234;-60.334;2023-05-10T09:05:33;12.40;92.20
55771;DHT22;41687;-33.234;-60.334;2023-05-10T09:08:02;12.40;92.30
55771;DHT22;41687;-33.234;-60.334;2023-05-10T09:10:30;12.40;92.60
55771;DHT22;41687;-33.234;-60.334;2023-05-10T09:12:58;12.40;92.50
55771;DHT22;41687;-33.234;-60.334;2023-05-10T09:15:26;12.50;92.40
55771;DHT22;41687;-33.234;-60.334;2023-05-10T09:17:54;12.50;92.60
55771;DHT22;41687;-33.234;-60.334;2023-05-10T09:20:22;12.50;92.70
55771;DHT22;41687;-33.234;-60.334;2023-05-10T09:22:50;12.60;92.10
55771;DHT22;41687;-33.234;-60.334;2023-05-10T09:25:18;12.60;92.40
55771;DHT22;41687;-33.234;-60.334;2023-05-10T09:27:47;12.50;92.30
55771;DHT22;41687;-33.234;-60.334;2023-05-10T09:30:24;12.50;92.70
55771;DHT22;41687;-33.234;-60.334;2023-05-10T09:32:54;12.50;92.50
55771;DHT22;41687;-33.234;-60.334;2023-05-10T09:35:23;12.40;92.40
55771;DHT22;41687;-33.234;-60.334;2023-05-10T09:37:51;12.40;92.50
55771;DHT22;41687;-33.234;-60.334;2023-05-10T09:40:22;12.30;92.50
55771;DHT22;41687;-33.234;-60.334;2023-05-10T09:42:53;12.30;92.50
55771;DHT22;41687;-33.234;-60.334;2023-05-10T09:45:22;12.30;92.50
55771;DHT22;41687;-33.234;-60.334;2023-05-10T09:47:50;12.30;92.60
55771;DHT22;41687;-33.234;-60.334;2023-05-10T09:50:20;12.30;92.70
55771;DHT22;41687;-33.234;-60.334;2023-05-10T09:52:55;12.30;92.80
55771;DHT22;41687;-33.234;-60.334;2023-05-10T09:55:44;12.30;92.90
55771;DHT22;41687;-33.234;-60.334;2023-05-10T09:58:13;12.30;93.00
55771;DHT22;41687;-33.234;-60.334;2023-05-10T10:00:42;12.30;92.80
55771;DHT22;41687;-33.234;-60.334;2023-05-10T10:03:15;12.20;92.70
55771;DHT22;41687;-33.234;-60.334;2023-05-10T10:05:44;12.30;92.90
55771;DHT22;41687;-33.234;-60.334;2023-05-10T10:08:13;12.20;93.00
55771;DHT22;41687;-33.234;-60.334;2023-05-10T10:10:42;12.20;92.70
55771;DHT22;41687;-33.234;-60.334;2023-05-10T10:13:11;12.20;92.70
55771;DHT22;41687;-33.234;-60.334;2023-05-10T10:15:39;12.20;92.90
55771;DHT22;41687;-33.234;-60.334;2023-05-10T10:18:07;12.20;93.10
55771;DHT22;41687;-33.234;-60.334;2023-05-10T10:20:37;12.20;92.90
55771;DHT22;41687;-33.234;-60.334;2023-05-10T10:23:05;12.20;92.90
55771;DHT22;41687;-33.234;-60.334;2023-05-10T10:25:32;12.20;93.00
55771;DHT22;41687;-33.234;-60.334;2023-05-10T10:30:48;12.20;93.00
55771;DHT22;41687;-33.234;-60.334;2023-05-10T10:36:19;12.20;92.80
55771;DHT22;41687;-33.234;-60.334;2023-05-10T10:41:35;12.30;92.90
55771;DHT22;41687;-33.234;-60.334;2023-05-10T10:47:05;12.40;92.80
55771;DHT22;41687;-33.234;-60.334;2023-05-10T10:55:13;12.40;92.50
55771;DHT22;41687;-33.234;-60.334;2023-05-10T10:57:52;12.40;92.20
55771;DHT22;41687;-33.234;-60.334;2023-05-10T11:03:05;12.60;92.40
55771;DHT22;41687;-33.234;-60.334;2023-05-10T11:05:47;13.20;91.70
55771;DHT22;41687;-33.234;-60.334;2023-05-10T11:08:25;14.00;90.40
55771;DHT22;41687;-33.234;-60.334;2023-05-10T11:16:09;14.50;88.20
55771;DHT22;41687;-33.234;-60.334;2023-05-10T11:18:37;15.50;86.50
55771;DHT22;41687;-33.234;-60.334;2023-05-10T11:21:06;16.60;83.30
55771;DHT22;41687;-33.234;-60.334;2023-05-10T11:26:13;18.70;76.80
55771;DHT22;41687;-33.234;-60.334;2023-05-10T11:28:48;19.60;73.60
55771;DHT22;41687;-33.234;-60.334;2023-05-10T11:31:19;20.50;70.10
55771;DHT22;41687;-33.234;-60.334;2023-05-10T11:33:49;21.30;68.00
55771;DHT22;41687;-33.234;-60.334;2023-05-10T11:36:52;21.90;66.10
55771;DHT22;41687;-33.234;-60.334;2023-05-10T11:39:21;22.80;61.20
55771;DHT22;41687;-33.234;-60.334;2023-05-10T11:41:52;23.20;63.30
55771;DHT22;41687;-33.234;-60.334;2023-05-10T11:44:20;23.60;63.80
55771;DHT22;41687;-33.234;-60.334;2023-05-10T11:46:49;23.90;62.70
55771;DHT22;41687;-33.234;-60.334;2023-05-10T11:49:16;24.30;60.30
55771;DHT22;41687;-33.234;-60.334;2023-05-10T11:51:44;24.70;59.90
55771;DHT22;41687;-33.234;-60.334;2023-05-10T11:54:11;25.00;59.30
55771;DHT22;41687;-33.234;-60.334;2023-05-10T11:56:40;25.40;59.00
55771;DHT22;41687;-33.234;-60.334;2023-05-10T11:59:07;25.60;58.90
55771;DHT22;41687;-33.234;-60.334;2023-05-10T12:01:35;25.50;57.80
55771;DHT22;41687;-33.234;-60.334;2023-05-10T12:04:03;24.90;58.50
55771;DHT22;41687;-33.234;-60.334;2023-05-10T12:06:35;23.90;60.50
55771;DHT22;41687;-33.234;-60.334;2023-05-10T12:09:08;22.70;59.70
55771;DHT22;41687;-33.234;-60.334;2023-05-10T12:11:40;21.50;62.30
55771;DHT22;41687;-33.234;-60.334;2023-05-10T12:14:08;20.40;63.90
55771;DHT22;41687;-33.234;-60.334;2023-05-10T12:16:36;19.50;66.90
55771;DHT22;41687;-33.234;-60.334;2023-05-10T12:19:04;18.90;68.90
55771;DHT22;41687;-33.234;-60.334;2023-05-10T12:21:32;18.20;70.00
55771;DHT22;41687;-33.234;-60.334;2023-05-10T12:24:02;17.90;71.80
55771;DHT22;41687;-33.234;-60.334;2023-05-10T12:26:32;17.40;72.50
55771;DHT22;41687;-33.234;-60.334;2023-05-10T12:29:20;17.10;73.90
55771;DHT22;41687;-33.234;-60.334;2023-05-10T12:31:53;16.80;73.60
55771;DHT22;41687;-33.234;-60.334;2023-05-10T12:34:31;16.40;75.60
55771;DHT22;41687;-33.234;-60.334;2023-05-10T12:36:58;16.00;76.30
55771;DHT22;41687;-33.234;-60.334;2023-05-10T12:39:36;16.30;77.20
55771;DHT22;41687;-33.234;-60.334;2023-05-10T12:42:05;17.00;76.20
55771;DHT22;41687;-33.234;-60.334;2023-05-10T12:44:33;17.80;75.10
55771;DHT22;41687;-33.234;-60.334;2023-05-10T12:47:00;18.50;73.30
55771;DHT22;41687;-33.234;-60.334;2023-05-10T12:49:28;19.10;72.20
55771;DHT22;41687;-33.234;-60.334;2023-05-10T12:51:56;19.20;72.00
55771;DHT22;41687;-33.234;-60.334;2023-05-10T12:54:23;19.50;71.60
55771;DHT22;41687;-33.234;-60.334;2023-05-10T12:56:51;19.80;71.10
55771;DHT22;41687;-33.234;-60.334;2023-05-10T12:59:18;19.60;70.50
55771;DHT22;41687;-33.234;-60.334;2023-05-10T13:01:46;19.50;71.30
55771;DHT22;41687;-33.234;-60.334;2023-05-10T13:04:13;19.50;70.70
55771;DHT22;41687;-33.234;-60.334;2023-05-10T13:06:41;19.50;70.30
55771;DHT22;41687;-33.234;-60.334;2023-05-10T13:09:08;19.50;70.70
55771;DHT22;41687;-33.234;-60.334;2023-05-10T13:11:35;19.50;70.70
55771;DHT22;41687;-33.234;-60.334;2023-05-10T13:14:03;19.50;70.60
55771;DHT22;41687;-33.234;-60.334;2023-05-10T13:16:31;19.60;71.20
55771;DHT22;41687;-33.234;-60.334;2023-05-10T13:18:58;19.60;71.30
55771;DHT22;41687;-33.234;-60.334;2023-05-10T13:21:26;19.40;70.90
55771;DHT22;41687;-33.234;-60.334;2023-05-10T13:23:54;19.30;71.60
55771;DHT22;41687;-33.234;-60.334;2023-05-10T13:26:22;19.30;70.90
55771;DHT22;41687;-33.234;-60.334;2023-05-10T13:28:50;19.30;71.30
55771;DHT22;41687;-33.234;-60.334;2023-05-10T13:31:18;19.30;71.20
55771;DHT22;41687;-33.234;-60.334;2023-05-10T13:33:46;19.40;71.50
55771;DHT22;41687;-33.234;-60.334;2023-05-10T13:36:13;19.40;70.60
55771;DHT22;41687;-33.234;-60.334;2023-05-10T13:38:41;19.40;70.80
55771;DHT22;41687;-33.234;-60.334;2023-05-10T13:41:09;19.30;71.30
55771;DHT22;41687;-33.234;-60.334;2023-05-10T13:43:37;19.30;71.20
55771;DHT22;41687;-33.234;-60.334;2023-05-10T13:46:04;19.20;71.20
55771;DHT22;41687;-33.234;-60.334;2023-05-10T13:48:32;19.20;71.90
55771;DHT22;41687;-33.234;-60.334;2023-05-10T13:51:00;19.20;71.50
55771;DHT22;41687;-33.234;-60.334;2023-05-10T13:53:27;19.30;70.90
55771;DHT22;41687;-33.234;-60.334;2023-05-10T13:55:55;19.20;71.30
55771;DHT22;41687;-33.234;-60.334;2023-05-10T13:58:22;19.30;71.70
55771;DHT22;41687;-33.234;-60.334;2023-05-10T14:00:51;19.30;70.10
55771;DHT22;41687;-33.234;-60.334;2023-05-10T14:03:22;19.40;70.00
55771;DHT22;41687;-33.234;-60.334;2023-05-10T14:05:49;19.40;69.80
55771;DHT22;41687;-33.234;-60.334;2023-05-10T14:08:17;19.40;69.70
55771;DHT22;41687;-33.234;-60.334;2023-05-10T14:10:44;19.30;68.30
55771;DHT22;41687;-33.234;-60.334;2023-05-10T14:13:12;19.30;68.60
55771;DHT22;41687;-33.234;-60.334;2023-05-10T14:15:39;19.10;69.00
55771;DHT22;41687;-33.234;-60.334;2023-05-10T14:18:07;19.10;69.70
55771;DHT22;41687;-33.234;-60.334;2023-05-10T14:20:34;19.00;69.50
55771;DHT22;41687;-33.234;-60.334;2023-05-10T14:23:02;18.90;69.20
55771;DHT22;41687;-33.234;-60.334;2023-05-10T14:25:29;18.90;69.60
55771;DHT22;41687;-33.234;-60.334;2023-05-10T14:27:58;18.90;69.70
55771;DHT22;41687;-33.234;-60.334;2023-05-10T14:30:28;18.90;70.20
55771;DHT22;41687;-33.234;-60.334;2023-05-10T14:32:58;18.90;69.90
55771;DHT22;41687;-33.234;-60.334;2023-05-10T14:35:28;19.00;70.30
55771;DHT22;41687;-33.234;-60.334;2023-05-10T14:37:58;19.10;70.10
55771;DHT22;41687;-33.234;-60.334;2023-05-10T14:40:25;19.00;70.60
55771;DHT22;41687;-33.234;-60.334;2023-05-10T14:42:53;18.90;70.20
55771;DHT22;41687;-33.234;-60.334;2023-05-10T14:45:21;19.00;70.60
55771;DHT22;41687;-33.234;-60.334;2023-05-10T14:47:49;18.90;70.40
55771;DHT22;41687;-33.234;-60.334;2023-05-10T14:50:17;18.80;70.30
55771;DHT22;41687;-33.234;-60.334;2023-05-10T14:52:45;18.80;70.70
55771;DHT22;41687;-33.234;-60.334;2023-05-10T14:55:12;18.80;69.40
55771;DHT22;41687;-33.234;-60.334;2023-05-10T14:57:39;18.70;70.00
55771;DHT22;41687;-33.234;-60.334;2023-05-10T15:00:07;18.80;70.00
55771;DHT22;41687;-33.234;-60.334;2023-05-10T15:02:35;18.80;70.30
55771;DHT22;41687;-33.234;-60.334;2023-05-10T15:05:02;18.90;70.80
55771;DHT22;41687;-33.234;-60.334;2023-05-10T15:07:30;19.00;70.70
55771;DHT22;41687;-33.234;-60.334;2023-05-10T15:09:58;19.10;69.80
55771;DHT22;41687;-33.234;-60.334;2023-05-10T15:12:25;19.10;69.10
55771;DHT22;41687;-33.234;-60.334;2023-05-10T15:14:53;19.00;69.30
55771;DHT22;41687;-33.234;-60.334;2023-05-10T15:17:21;19.00;69.30
55771;DHT22;41687;-33.234;-60.334;2023-05-10T15:19:48;19.00;69.20
55771;DHT22;41687;-33.234;-60.334;2023-05-10T15:22:16;19.00;69.30
55771;DHT22;41687;-33.234;-60.334;2023-05-10T15:24:43;19.10;68.90
55771;DHT22;41687;-33.234;-60.334;2023-05-10T15:27:11;19.10;68.80
55771;DHT22;41687;-33.234;-60.334;2023-05-10T15:29:39;19.20;69.10
55771;DHT22;41687;-33.234;-60.334;2023-05-10T15:32:06;19.20;69.40
55771;DHT22;41687;-33.234;-60.334;2023-05-10T15:34:34;19.20;68.50
55771;DHT22;41687;-33.234;-60.334;2023-05-10T15:37:02;19.20;68.40
55771;DHT22;41687;-33.234;-60.334;2023-05-10T15:39:28;19.30;68.00
55771;DHT22;41687;-33.234;-60.334;2023-05-10T15:41:56;19.30;66.30
55771;DHT22;41687;-33.234;-60.334;2023-05-10T15:44:23;19.20;67.10
55771;DHT22;41687;-33.234;-60.334;2023-05-10T15:46:51;19.10;66.90
55771;DHT22;41687;-33.234;-60.334;2023-05-10T15:49:19;19.10;66.60
55771;DHT22;41687;-33.234;-60.334;2023-05-10T15:51:46;19.10;67.10